createdAt,value
2023-05-10T00:00:49.418Z,59.11
2023-05-10T00:03:17.268Z,59.55
2023-05-10T00:05:44.689Z,59.49
2023-05-10T00:08:12.573Z,59.50
2023-05-10T00:10:39.871Z,59.41
2023-05-10T00:13:07.393Z,59.32
2023-05-10T00:15:36.132Z,59.41
2023-05-10T00:18:04.061Z,59.83
2023-05-10T00:20:31.416Z,59.70
2023-05-10T00:22:59.165Z,59.69
2023-05-10T00:25:26.729Z,59.87
2023-05-10T00:27:56.571Z,59.91
2023-05-10T00:30:23.851Z,59.90
2023-05-10T00:32:53.067Z,59.94
2023-05-10T00:35:20.780Z,59.97
2023-05-10T00:37:48.826Z,60.10
2023-05-10T00:40:16.595Z,59.94
2023-05-10T00:42:44.106Z,60.04
2023-05-10T00:45:12.846Z,60.39
2023-05-10T00:47:41.030Z,60.52
2023-05-10T00:50:10.215Z,60.82
2023-05-10T00:52:38.247Z,60.62
2023-05-10T00:55:07.505Z,60.68
2023-05-10T00:57:34.649Z,61.03
2023-05-10T01:00:03.618Z,60.81
2023-05-10T01:06:25.310Z,61.18
2023-05-10T01:10:20.136Z,61.21
2023-05-10T01:14:14.444Z,61.40
2023-05-10T01:18:04.198Z,60.87
2023-05-10T01:21:45.018Z,61.35
2023-05-10T01:25:44.518Z,61.47
2023-05-10T01:29:58.169Z,61.54
2023-05-10T01:33:39.331Z,61.46
2023-05-10T01:41:22.043Z,61.78
2023-05-10T01:45:24.711Z,61.87
2023-05-10T01:49:14.038Z,61.56
2023-05-10T01:53:04.028Z,61.94
2023-05-10T02:00:47.615Z,62.24
2023-05-10T02:04:38.359Z,62.25
2023-05-10T02:08:44.261Z,62.39
2023-05-10T02:16:24.088Z,63.26
2023-05-10T02:20:16.516Z,63.30
2023-05-10T02:24:03.549Z,63.45
2023-05-10T02:27:53.637Z,63.88
2023-05-10T02:31:41.151Z,63.99
2023-05-10T02:35:34.931Z,64.10
2023-05-10T02:39:25.044Z,63.70
2023-05-10T02:43:12.562Z,64.13
2023-05-10T02:47:07.276Z,63.80
2023-05-10T02:51:00.949Z,63.82
2023-05-10T02:58:46.549Z,63.91
2023-05-10T03:02:35.179Z,63.87
2023-05-10T03:06:28.929Z,64.26
2023-05-10T03:10:16.793Z,64.18
2023-05-10T03:14:24.512Z,64.22
2023-05-10T03:18:45.545Z,64.61
2023-05-10T03:22:32.705Z,64.44
2023-05-10T03:30:08.537Z,64.45
2023-05-10T03:33:55.493Z,64.67
2023-05-10T03:37:25.440Z,64.91
2023-05-10T03:41:12.369Z,65.19
2023-05-10T03:44:59.254Z,65.07
2023-05-10T03:48:46.461Z,65.04
2023-05-10T03:52:37.041Z,65.00
2023-05-10T03:56:24.170Z,64.81
2023-05-10T04:00:11.436Z,65.13
2023-05-10T04:04:00.645Z,64.85
2023-05-10T04:07:47.715Z,65.06
2023-05-10T04:10:56.345Z,64.71
2023-05-10T04:14:45.526Z,64.79
2023-05-10T04:18:33.886Z,64.89
2023-05-10T04:22:21.037Z,64.74
2023-05-10T04:26:08.016Z,64.50
2023-05-10T04:29:55.117Z,64.39
2023-05-10T04:33:42.400Z,64.18
2023-05-10T04:37:29.548Z,64.22
2023-05-10T04:40:44.380Z,64.08
2023-05-10T04:44:15.810Z,64.07
2023-05-10T04:47:41.938Z,63.41
2023-05-10T04:50:56.186Z,63.60
2023-05-10T04:54:23.199Z,62.96
2023-05-10T04:57:54.915Z,62.92
2023-05-10T05:01:21.944Z,62.74
2023-05-10T05:04:30.624Z,62.66
2023-05-10T05:08:06.397Z,62.46
2023-05-10T05:11:56.802Z,62.44
2023-05-10T05:15:06.003Z,62.27
2023-05-10T05:18:41.597Z,62.09
2023-05-10T05:22:06.181Z,62.10
2023-05-10T05:25:38.464Z,61.83
2023-05-10T05:28:46.013Z,61.86
2023-05-10T05:32:37.148Z,61.70
2023-05-10T05:40:08.655Z,61.63
2023-05-10T05:43:46.472Z,61.55
2023-05-10T05:47:33.324Z,61.41
2023-05-10T05:51:20.133Z,60.89
2023-05-10T05:55:07.212Z,60.70
2023-05-10T05:58:40.143Z,60.52
2023-05-10T06:02:18.872Z,60.49
2023-05-10T06:05:45.860Z,60.14
2023-05-10T06:09:32.855Z,59.51
2023-05-10T06:12:15.551Z,59.44
2023-05-10T06:15:42.777Z,58.12
2023-05-10T06:19:29.973Z,57.13
2023-05-10T06:23:05.837Z,57.31
2023-05-10T06:26:53.024Z,56.69
2023-05-10T06:30:40.248Z,56.84
2023-05-10T06:34:27.515Z,56.62
2023-05-10T06:38:20.387Z,56.25
2023-05-10T06:45:18.956Z,55.00
2023-05-10T06:48:39.523Z,54.50
2023-05-10T06:52:31.010Z,53.55
2023-05-10T06:56:18.175Z,53.92
2023-05-10T07:00:06.148Z,54.00
2023-05-10T07:03:54.951Z,53.54
2023-05-10T07:07:45.733Z,51.55
2023-05-10T07:11:34.093Z,52.41
2023-05-10T07:15:27.924Z,51.10
2023-05-10T07:19:27.081Z,50.53
2023-05-10T07:23:20.531Z,50.03
2023-05-10T07:27:10.799Z,49.04
2023-05-10T07:31:02.732Z,48.44
2023-05-10T07:38:47.734Z,48.11
2023-05-10T07:42:42.260Z,46.53
2023-05-10T07:46:33.345Z,45.89
2023-05-10T07:50:29.059Z,44.05
2023-05-10T07:54:17.274Z,43.77
2023-05-10T07:58:14.033Z,43.83
2023-05-10T08:01:21.329Z,43.67
2023-05-10T08:04:52.660Z,43.44
2023-05-10T08:07:28.630Z,44.79
2023-05-10T08:09:55.961Z,43.28
2023-05-10T08:12:24.288Z,41.71
2023-05-10T08:14:51.480Z,43.16
2023-05-10T08:17:19.940Z,43.04
2023-05-10T08:19:47.874Z,41.58
2023-05-10T08:22:15.347Z,38.92
2023-05-10T08:24:43.391Z,40.63
2023-05-10T08:27:11.685Z,41.06
2023-05-10T08:29:59.423Z,38.84
2023-05-10T08:32:26.807Z,38.18
2023-05-10T08:34:54.303Z,39.40
2023-05-10T08:38:21.773Z,40.35
2023-05-10T08:40:56.670Z,39.97
2023-05-10T08:44:07.108Z,40.03
2023-05-10T08:47:42.761Z,38.46
2023-05-10T08:51:30.168Z,39.34
2023-05-10T08:55:18.441Z,39.08
2023-05-10T08:59:14.290Z,38.08
2023-05-10T09:03:02.181Z,38.87
2023-05-10T09:06:55.907Z,37.83
2023-05-10T09:10:44.028Z,36.29
2023-05-10T09:14:42.091Z,35.70
2023-05-10T09:18:34.375Z,36.24
2023-05-10T09:22:23.494Z,35.49
2023-05-10T09:26:15.794Z,35.66
2023-05-10T09:30:24.404Z,34.91
2023-05-10T09:34:20.104Z,36.46
2023-05-10T09:38:14.282Z,35.18
2023-05-10T09:42:05.256Z,35.05
2023-05-10T09:45:53.598Z,34.61
2023-05-10T09:49:47.211Z,33.56
2023-05-10T10:05:36.818Z,35.81
2023-05-10T10:09:32.317Z,35.30
2023-05-10T10:13:20.064Z,33.49
2023-05-10T10:17:11.739Z,35.19
2023-05-10T10:21:01.359Z,33.75
2023-05-10T10:25:07.776Z,32.71
2023-05-10T10:28:56.018Z,33.52
2023-05-10T10:33:24.284Z,35.12
2023-05-10T10:36:38.725Z,34.87
2023-05-10T10:39:12.030Z,34.20
2023-05-10T10:41:57.025Z,34.11
2023-05-10T10:44:29.161Z,34.30
2023-05-10T10:47:32.346Z,33.69
2023-05-10T10:50:14.253Z,34.77
2023-05-10T10:52:44.281Z,34.55
2023-05-10T10:55:20.540Z,35.13
2023-05-10T10:58:02.277Z,34.91
2023-05-10T11:00:38.866Z,34.78
2023-05-10T11:03:18.894Z,33.91
2023-05-10T11:06:08.314Z,35.06
2023-05-10T11:08:46.409Z,34.80
2023-05-10T11:11:21.886Z,33.62
2023-05-10T11:13:53.536Z,33.71
2023-05-10T11:16:25.460Z,33.06
2023-05-10T11:19:11.243Z,33.36
2023-05-10T11:21:52.823Z,33.48
2023-05-10T11:24:24.617Z,33.76
2023-05-10T11:26:55.052Z,33.08
2023-05-10T11:29:22.664Z,33.10
2023-05-10T11:31:51.109Z,33.92
2023-05-10T11:34:35.116Z,33.73
2023-05-10T11:37:03.404Z,32.57
2023-05-10T11:39:32.994Z,32.79
2023-05-10T11:42:00.880Z,33.38
2023-05-10T11:44:35.034Z,34.18
2023-05-10T11:47:10.553Z,32.90
2023-05-10T11:49:38.237Z,33.12
2023-05-10T11:52:12.465Z,33.71
2023-05-10T11:54:47.858Z,34.17
2023-05-10T11:57:15.929Z,34.09
2023-05-10T11:59:44.943Z,33.91
2023-05-10T12:02:18.846Z,34.59
2023-05-10T12:04:47.201Z,34.47
2023-05-10T12:07:16.327Z,33.86
2023-05-10T12:10:05.543Z,33.71
2023-05-10T12:12:41.359Z,33.84
2023-05-10T12:15:26.156Z,33.28
2023-05-10T12:17:53.983Z,33.18
2023-05-10T12:20:30.106Z,31.30
2023-05-10T12:23:03.397Z,32.36
2023-05-10T12:25:36.730Z,31.74
2023-05-10T12:30:55.870Z,32.31
2023-05-10T12:33:23.262Z,32.73
2023-05-10T12:35:53.334Z,33.30
2023-05-10T12:38:32.460Z,33.21
2023-05-10T12:41:02.319Z,33.16
2023-05-10T12:43:30.081Z,32.70
2023-05-10T12:45:58.606Z,32.31
2023-05-10T12:48:26.496Z,32.17
2023-05-10T12:50:54.325Z,31.75
2023-05-10T12:53:22.898Z,30.80
2023-05-10T12:55:50.187Z,31.13
2023-05-10T12:58:31.465Z,31.69
2023-05-10T13:01:04.381Z,31.42
2023-05-10T13:03:31.934Z,31.94
2023-05-10T13:05:59.175Z,31.99
2023-05-10T13:08:26.952Z,32.02
2023-05-10T13:10:54.558Z,31.69
2023-05-10T13:13:21.799Z,31.35
2023-05-10T13:15:50.048Z,31.75
2023-05-10T13:18:17.603Z,31.89
2023-05-10T13:20:45.735Z,30.66
2023-05-10T13:23:13.606Z,30.61
2023-05-10T13:25:41.504Z,30.30
2023-05-10T13:28:08.909Z,31.18
2023-05-10T13:30:37.347Z,31.21
2023-05-10T13:33:04.745Z,31.61
2023-05-10T13:35:32.103Z,31.57
2023-05-10T13:38:00.211Z,29.46
2023-05-10T13:40:29.266Z,30.82
2023-05-10T13:42:56.570Z,31.58
2023-05-10T13:45:23.769Z,30.93
2023-05-10T13:47:51.613Z,31.40
2023-05-10T13:50:19.384Z,31.38
2023-05-10T13:52:47.489Z,30.58
2023-05-10T13:55:15.447Z,31.32
2023-05-10T13:57:44.637Z,30.63
2023-05-10T14:00:12.652Z,30.66
2023-05-10T14:02:40.922Z,31.25
2023-05-10T14:05:08.852Z,31.00
2023-05-10T14:07:36.368Z,30.45
2023-05-10T14:10:04.364Z,29.98
2023-05-10T14:12:32.121Z,30.83
2023-05-10T14:15:01.517Z,31.09
2023-05-10T14:17:29.018Z,31.14
2023-05-10T14:19:56.823Z,31.05
2023-05-10T14:22:24.640Z,30.94
2023-05-10T14:24:52.132Z,30.44
2023-05-10T14:27:19.776Z,31.07
2023-05-10T14:29:47.573Z,31.65
2023-05-10T14:32:14.874Z,31.48
2023-05-10T14:34:42.811Z,30.93
2023-05-10T14:37:13.159Z,31.82
2023-05-10T14:39:40.746Z,30.66
2023-05-10T14:42:08.782Z,30.88
2023-05-10T14:44:36.852Z,31.59
2023-05-10T14:47:04.136Z,31.82
2023-05-10T14:49:34.096Z,31.49
2023-05-10T14:52:02.391Z,31.50
2023-05-10T14:54:29.666Z,31.40
2023-05-10T14:56:57.527Z,31.38
2023-05-10T14:59:25.359Z,31.55
2023-05-10T15:01:53.522Z,31.47
2023-05-10T15:04:22.746Z,31.37
2023-05-10T15:06:52.235Z,31.23
2023-05-10T15:09:19.579Z,31.78
2023-05-10T15:11:47.093Z,31.94
2023-05-10T15:14:14.812Z,31.41
2023-05-10T15:16:42.772Z,31.83
2023-05-10T15:19:10.480Z,32.31
2023-05-10T15:21:40.734Z,31.99
2023-05-10T15:24:09.372Z,31.81
2023-05-10T15:26:36.833Z,31.18
2023-05-10T15:29:05.348Z,31.91
2023-05-10T15:31:32.489Z,31.87
2023-05-10T15:34:00.629Z,31.98
2023-05-10T15:36:28.462Z,32.04
2023-05-10T15:38:57.340Z,31.35
2023-05-10T15:41:25.856Z,31.02
2023-05-10T15:43:53.664Z,30.86
2023-05-10T15:46:21.078Z,31.92
2023-05-10T15:48:48.498Z,31.81
2023-05-10T15:51:16.451Z,32.29
2023-05-10T15:53:56.359Z,32.65
2023-05-10T15:56:31.748Z,32.73
2023-05-10T15:58:59.753Z,32.28
2023-05-10T16:01:27.219Z,32.70
2023-05-10T16:03:55.186Z,32.86
2023-05-10T16:06:22.618Z,32.85
2023-05-10T16:08:49.880Z,33.48
2023-05-10T16:11:17.969Z,33.34
2023-05-10T16:13:45.304Z,32.93
2023-05-10T16:16:12.836Z,33.00
2023-05-10T16:18:40.508Z,33.33
2023-05-10T16:21:08.198Z,33.45
2023-05-10T16:23:35.438Z,33.47
2023-05-10T16:26:05.815Z,33.88
2023-05-10T16:28:33.508Z,34.08
2023-05-10T16:31:00.787Z,34.08
2023-05-10T16:33:28.580Z,34.39
2023-05-10T16:35:56.000Z,34.64
2023-05-10T16:38:23.384Z,34.82
2023-05-10T16:40:51.504Z,34.88
2023-05-10T16:43:19.711Z,34.69
2023-05-10T16:45:47.053Z,34.94
2023-05-10T16:48:14.593Z,34.99
2023-05-10T16:50:45.185Z,35.30
2023-05-10T16:53:12.606Z,35.45
2023-05-10T16:55:40.351Z,35.65
2023-05-10T16:58:07.829Z,35.75
2023-05-10T17:00:35.197Z,36.04
2023-05-10T17:03:02.557Z,35.90
2023-05-10T17:05:30.243Z,36.24
2023-05-10T17:07:57.470Z,36.32
2023-05-10T17:10:24.656Z,36.62
2023-05-10T17:12:52.065Z,36.99
2023-05-10T17:15:19.849Z,37.03
2023-05-10T17:17:48.428Z,37.12
2023-05-10T17:20:15.775Z,37.17
2023-05-10T17:22:43.036Z,37.32
2023-05-10T17:25:10.788Z,37.64
2023-05-10T17:27:38.258Z,37.68
2023-05-10T17:30:09.009Z,37.79
2023-05-10T17:32:37.085Z,37.93
2023-05-10T17:35:05.570Z,38.08
2023-05-10T17:37:33.434Z,38.42
2023-05-10T17:40:01.803Z,38.46
2023-05-10T17:42:29.122Z,38.51
2023-05-10T17:44:56.710Z,38.57
2023-05-10T17:47:24.508Z,39.07
2023-05-10T17:49:51.805Z,39.15
2023-05-10T17:52:19.391Z,39.30
2023-05-10T17:54:46.847Z,39.23
2023-05-10T17:57:14.190Z,39.39
2023-05-10T17:59:41.393Z,39.67
2023-05-10T18:02:08.715Z,39.74
2023-05-10T18:04:36.534Z,39.77
2023-05-10T18:07:04.044Z,39.91
2023-05-10T18:09:32.417Z,40.08
2023-05-10T18:12:00.204Z,40.21
2023-05-10T18:14:39.611Z,40.08
2023-05-10T18:17:08.151Z,40.25
2023-05-10T18:19:35.678Z,40.23
2023-05-10T18:22:03.289Z,40.51
2023-05-10T18:24:38.878Z,40.58
2023-05-10T18:27:10.770Z,40.81
2023-05-10T18:29:38.876Z,41.01
2023-05-10T18:32:07.408Z,40.86
2023-05-10T18:34:35.085Z,40.90
2023-05-10T18:37:08.071Z,41.21
2023-05-10T18:39:37.105Z,40.96
2023-05-10T18:42:08.954Z,41.39
2023-05-10T18:44:36.674Z,41.24
2023-05-10T18:47:04.211Z,41.45
2023-05-10T18:49:32.726Z,41.42
2023-05-10T18:52:00.855Z,41.34
2023-05-10T18:54:28.409Z,41.53
2023-05-10T18:56:57.716Z,41.69
2023-05-10T18:59:31.158Z,41.79
2023-05-10T19:01:58.668Z,41.68
2023-05-10T19:04:26.049Z,41.85
2023-05-10T19:06:53.818Z,42.20
2023-05-10T19:09:22.878Z,42.01
2023-05-10T19:11:51.275Z,42.19
2023-05-10T19:14:19.422Z,42.20
2023-05-10T19:16:47.196Z,42.31
2023-05-10T19:19:15.217Z,42.40
2023-05-10T19:21:42.928Z,42.26
2023-05-10T19:24:12.937Z,42.32
2023-05-10T19:26:40.350Z,42.14
2023-05-10T19:29:08.139Z,42.39
2023-05-10T19:31:36.839Z,42.39
2023-05-10T19:34:06.375Z,42.44
2023-05-10T19:36:34.902Z,42.30
2023-05-10T19:39:03.350Z,42.16
2023-05-10T19:41:30.899Z,42.24
2023-05-10T19:43:58.946Z,42.49
2023-05-10T19:46:26.525Z,42.24
2023-05-10T19:48:54.038Z,42.45
2023-05-10T19:51:22.053Z,42.28
2023-05-10T19:53:49.932Z,42.37
2023-05-10T19:56:22.122Z,42.44
2023-05-10T19:58:49.537Z,42.74
2023-05-10T20:01:17.146Z,42.29
2023-05-10T20:03:44.564Z,42.48
2023-05-10T20:06:13.383Z,42.58
2023-05-10T20:08:41.213Z,43.03
2023-05-10T20:11:08.754Z,42.70
2023-05-10T20:13:36.965Z,42.83
2023-05-10T20:16:06.377Z,42.98
2023-05-10T20:18:34.573Z,43.03
2023-05-10T20:21:02.329Z,42.89
2023-05-10T20:23:29.770Z,43.09
2023-05-10T20:25:57.847Z,43.39
2023-05-10T20:28:27.080Z,43.16
2023-05-10T20:30:56.242Z,43.37
2023-05-10T20:33:23.759Z,43.31
2023-05-10T20:35:51.883Z,43.03
2023-05-10T20:38:19.171Z,43.11
2023-05-10T20:40:47.133Z,42.84
2023-05-10T20:43:14.356Z,43.16
2023-05-10T20:45:42.158Z,43.30
2023-05-10T20:48:10.123Z,43.15
2023-05-10T20:50:37.521Z,43.37
2023-05-10T20:53:04.675Z,43.20
2023-05-10T20:55:31.962Z,43.42
2023-05-10T20:57:59.208Z,43.58
2023-05-10T21:00:26.553Z,43.40
2023-05-10T21:02:53.850Z,43.73
2023-05-10T21:05:21.383Z,43.92
2023-05-10T21:07:49.843Z,43.96
2023-05-10T21:10:17.480Z,44.04
2023-05-10T21:12:44.928Z,44.03
2023-05-10T21:15:12.355Z,44.28
2023-05-10T21:17:39.580Z,44.65
2023-05-10T21:20:07.850Z,44.33
2023-05-10T21:22:34.959Z,44.47
2023-05-10T21:25:02.476Z,44.74
2023-05-10T21:27:29.678Z,44.68
2023-05-10T21:29:57.115Z,44.78
2023-05-10T21:32:24.324Z,45.14
2023-05-10T21:34:51.522Z,44.99
2023-05-10T21:37:19.194Z,45.27
2023-05-10T21:39:46.450Z,45.61
2023-05-10T21:42:13.888Z,45.80
2023-05-10T21:44:41.340Z,45.64
2023-05-10T21:47:08.645Z,45.69
2023-05-10T21:49:36.780Z,46.11
2023-05-10T21:52:04.240Z,46.09
2023-05-10T21:54:31.436Z,46.37
2023-05-10T21:56:59.190Z,46.20
2023-05-10T21:59:26.862Z,46.27
2023-05-10T22:01:54.097Z,46.56
2023-05-10T22:04:21.539Z,46.53
2023-05-10T22:06:49.573Z,46.77
2023-05-10T22:09:17.416Z,46.77
2023-05-10T22:11:44.627Z,46.80
2023-05-10T22:14:12.008Z,46.76
2023-05-10T22:16:39.245Z,47.20
2023-05-10T22:19:06.920Z,47.32
2023-05-10T22:21:34.711Z,47.28
2023-05-10T22:24:02.130Z,47.67
2023-05-10T22:26:29.381Z,47.43
2023-05-10T22:28:56.693Z,47.53
2023-05-10T22:31:23.936Z,47.69
2023-05-10T22:33:51.414Z,48.20
2023-05-10T22:36:18.735Z,48.35
2023-05-10T22:38:46.230Z,48.26
2023-05-10T22:41:13.807Z,48.30
2023-05-10T22:43:41.031Z,48.41
2023-05-10T22:46:08.183Z,48.40
2023-05-10T22:48:39.072Z,48.73
2023-05-10T22:51:06.483Z,48.87
2023-05-10T22:53:33.660Z,48.76
2023-05-10T22:56:01.635Z,49.05
2023-05-10T22:58:28.972Z,49.15
2023-05-10T23:00:56.487Z,49.29
2023-05-10T23:03:24.022Z,49.20
2023-05-10T23:05:51.588Z,49.54
2023-05-10T23:08:18.707Z,49.67
2023-05-10T23:10:45.857Z,49.59
2023-05-10T23:13:13.730Z,49.98
2023-05-10T23:15:41.268Z,50.07
2023-05-10T23:18:10.126Z,50.30
2023-05-10T23:20:38.088Z,50.23
2023-05-10T23:23:05.263Z,50.10
2023-05-10T23:25:33.043Z,50.32
2023-05-10T23:28:00.292Z,50.43
2023-05-10T23:30:27.581Z,50.44
2023-05-10T23:32:54.794Z,50.43
2023-05-10T23:35:22.161Z,50.63
2023-05-10T23:37:50.249Z,50.63
2023-05-10T23:40:17.934Z,50.38
2023-05-10T23:42:45.594Z,50.43
2023-05-10T23:45:12.813Z,50.54
2023-05-10T23:47:40.328Z,50.42
2023-05-10T23:50:08.229Z,50.56
2023-05-10T23:52:35.489Z,50.66
2023-05-10T23:55:02.739Z,50.58
2023-05-10T23:57:30.473Z,50.85
2023-05-10T23:59:57.613Z,51.06
